Time;durP1;ratioP1;P1;durP2;ratioP2;P2;SDS_P1;SDS_P2;PMS_P1;PMS_P2;Temp;Humidity;BMP_temperature;BMP_pressure;BME280_temperature;BME280_humidity;BME280_pressure;Samples;Min_cycle;Max_cycle;Signal;HPM_P1;HPM_P2
2022/04/21 00:01:05;;;;;;;7.60;6.60;;;6.30;99.90;;;;;;5110456;27;20035;-42
2022/04/21 00:03:30;;;;;;;12.77;7.20;;;6.20;99.90;;;;;;5122274;27;20046;-43
2022/04/21 00:05:56;;;;;;;10.95;7.05;;;6.20;99.90;;;;;;5121846;27;20416;-46
2022/04/21 00:08:22;;;;;;;8.52;6.38;;;6.10;99.90;;;;;;5123975;27;20043;-43
2022/04/21 00:10:48;;;;;;;7.50;6.35;;;6.10;99.90;;;;;;5131656;27;20047;-42
2022/04/21 00:13:13;;;;;;;7.90;7.03;;;6.10;99.90;;;;;;5098833;28;20577;-42
2022/04/21 00:15:39;;;;;;;8.05;6.80;;;6.10;99.90;;;;;;5100100;28;20081;-42
2022/04/21 00:18:05;;;;;;;9.35;7.57;;;6.10;99.90;;;;;;5118612;27;20074;-42
2022/04/21 00:20:31;;;;;;;7.78;6.88;;;6.00;99.90;;;;;;5119740;27;20421;-46
2022/04/21 00:25:41;;;;;;;10.60;6.93;;;6.00;99.90;;;;;;5100080;28;20055;-42
2022/04/21 00:28:07;;;;;;;8.50;7.28;;;6.00;99.90;;;;;;5100411;28;20366;-43
2022/04/21 00:30:32;;;;;;;7.65;6.85;;;6.00;99.90;;;;;;5097837;28;20434;-43
2022/04/21 00:32:58;;;;;;;7.93;6.70;;;6.00;99.90;;;;;;5102635;27;20047;-43
2022/04/21 00:35:24;;;;;;;7.07;6.30;;;6.00;99.90;;;;;;5099799;28;20120;-44
2022/04/21 00:37:55;;;;;;;8.05;5.85;;;6.00;99.90;;;;;;5100869;28;20054;-42
2022/04/21 00:40:23;;;;;;;10.40;7.13;;;6.00;99.90;;;;;;5097565;28;20052;-44
2022/04/21 00:42:49;;;;;;;10.88;6.70;;;6.00;99.90;;;;;;5110925;27;20517;-42
2022/04/21 00:45:15;;;;;;;8.75;6.72;;;6.00;99.90;;;;;;5099820;28;20358;-42
2022/04/21 00:47:45;;;;;;;8.27;6.68;;;6.00;99.90;;;;;;5101418;27;20049;-42
2022/04/21 00:50:37;;;;;;;8.48;6.68;;;6.00;99.90;;;;;;5100564;28;20055;-42
2022/04/21 00:53:04;;;;;;;9.65;6.95;;;5.90;99.90;;;;;;5106255;27;20460;-42
2022/04/21 00:55:30;;;;;;;8.20;6.97;;;5.90;99.90;;;;;;5100900;27;20413;-42
2022/04/21 00:57:57;;;;;;;8.00;6.65;;;5.90;99.90;;;;;;5112872;27;20123;-42
2022/04/21 01:00:23;;;;;;;11.40;7.25;;;5.80;99.90;;;;;;5104973;27;20054;-42
2022/04/21 01:02:52;;;;;;;9.38;7.50;;;5.80;99.90;;;;;;5093812;27;20055;-42
2022/04/21 01:05:26;;;;;;;9.75;7.57;;;5.80;99.90;;;;;;5123091;27;20140;-42
2022/04/21 01:07:54;;;;;;;10.82;7.93;;;5.80;99.90;;;;;;5116548;27;20065;-44
2022/04/21 01:10:20;;;;;;;8.93;7.57;;;5.80;99.90;;;;;;5133709;27;20127;-46
2022/04/21 01:12:47;;;;;;;11.20;7.97;;;5.80;99.90;;;;;;5109058;27;20772;-41
2022/04/21 01:15:12;;;;;;;11.32;8.23;;;5.70;99.90;;;;;;5113752;27;20046;-44
2022/04/21 01:17:39;;;;;;;8.55;7.60;;;5.70;99.90;;;;;;5120898;27;20119;-41
2022/04/21 01:20:06;;;;;;;9.05;7.72;;;5.60;99.90;;;;;;5121014;27;20047;-42
2022/04/21 01:22:32;;;;;;;10.60;8.10;;;5.60;99.90;;;;;;5121412;28;20059;-44
2022/04/21 01:24:58;;;;;;;10.75;8.32;;;5.50;99.90;;;;;;5118195;28;20047;-43
2022/04/21 01:27:27;;;;;;;11.30;8.30;;;5.50;99.90;;;;;;5104789;28;20053;-41
2022/04/21 01:29:54;;;;;;;9.48;8.15;;;5.50;99.90;;;;;;5108390;28;20043;-42
2022/04/21 01:32:20;;;;;;;10.70;8.77;;;5.50;99.90;;;;;;5120670;28;20031;-42
2022/04/21 01:34:45;;;;;;;9.90;8.43;;;5.50;99.90;;;;;;5119769;28;20581;-42
2022/04/21 01:42:56;;;;;;;11.43;7.82;;;5.30;99.90;;;;;;5077104;28;20480;-42
2022/04/21 01:45:22;;;;;;;9.25;7.82;;;5.30;99.90;;;;;;5059286;28;20040;-44
2022/04/21 01:47:48;;;;;;;11.75;8.88;;;5.30;99.90;;;;;;5076375;28;20056;-41
2022/04/21 01:50:14;;;;;;;12.13;9.30;;;5.30;99.90;;;;;;5075328;28;20254;-42
2022/04/21 01:52:39;;;;;;;11.45;9.02;;;5.30;99.90;;;;;;5078864;28;20052;-42
2022/04/21 01:55:06;;;;;;;10.45;9.02;;;5.30;99.90;;;;;;5063197;28;20154;-43
2022/04/21 01:57:33;;;;;;;12.02;9.85;;;5.40;99.90;;;;;;5062405;28;20606;-43
2022/04/21 01:59:59;;;;;;;11.88;9.25;;;5.40;99.90;;;;;;5080396;28;20064;-44
2022/04/21 02:02:25;;;;;;;10.23;8.82;;;5.40;99.90;;;;;;5080657;28;20091;-43
2022/04/21 02:04:50;;;;;;;12.30;9.57;;;5.40;99.90;;;;;;5079664;28;20047;-42
2022/04/21 02:07:17;;;;;;;12.73;10.50;;;5.50;99.90;;;;;;5078304;28;20061;-44
2022/04/21 02:09:42;;;;;;;12.02;9.98;;;5.50;99.90;;;;;;5081100;28;20051;-42
2022/04/21 02:12:09;;;;;;;12.23;9.60;;;5.50;99.90;;;;;;5080739;28;20097;-41
2022/04/21 02:14:35;;;;;;;15.38;9.95;;;5.50;99.90;;;;;;5095921;28;20071;-42
2022/04/21 02:17:00;;;;;;;11.10;9.75;;;5.50;99.90;;;;;;5112974;27;20035;-42
2022/04/21 02:19:28;;;;;;;14.25;10.35;;;5.50;99.90;;;;;;5126837;27;20504;-42
2022/04/21 02:21:54;;;;;;;13.02;10.27;;;5.50;99.90;;;;;;5127917;27;20104;-45
2022/04/21 02:24:20;;;;;;;13.70;10.13;;;5.50;99.90;;;;;;5124885;27;20443;-47
2022/04/21 02:26:46;;;;;;;14.77;11.27;;;5.50;99.90;;;;;;5116438;27;20048;-46
2022/04/21 02:29:11;;;;;;;12.02;10.20;;;5.50;99.90;;;;;;5115614;27;20401;-44
2022/04/21 02:31:37;;;;;;;15.48;10.80;;;5.40;99.90;;;;;;5124178;27;20536;-44
2022/04/21 02:34:03;;;;;;;14.00;10.05;;;5.40;99.90;;;;;;5117023;27;20112;-43
2022/04/21 02:36:28;;;;;;;12.23;10.85;;;5.40;99.90;;;;;;5117215;27;20075;-45
2022/04/21 02:38:54;;;;;;;14.00;11.55;;;5.30;99.90;;;;;;5112127;27;20051;-44
2022/04/21 02:41:20;;;;;;;14.10;11.15;;;5.30;99.90;;;;;;5123832;27;20043;-42
2022/04/21 02:43:46;;;;;;;14.60;11.65;;;5.20;99.90;;;;;;5123021;27;20047;-41
2022/04/21 02:46:13;;;;;;;15.50;11.43;;;5.20;99.90;;;;;;5118770;27;20058;-41
2022/04/21 02:48:39;;;;;;;14.98;11.98;;;5.20;99.90;;;;;;5121628;27;20096;-42
2022/04/21 02:51:05;;;;;;;16.35;11.45;;;5.20;99.90;;;;;;5096691;28;20048;-43
2022/04/21 02:59:00;;;;;;;14.68;11.85;;;5.20;99.90;;;;;;5123128;27;20058;-42
2022/04/21 03:01:27;;;;;;;17.27;12.90;;;5.30;99.90;;;;;;5104166;27;20044;-41
2022/04/21 03:03:54;;;;;;;18.15;12.85;;;5.20;99.90;;;;;;5111950;27;20542;-41
2022/04/21 03:06:20;;;;;;;16.05;12.77;;;5.30;99.90;;;;;;5099310;28;20488;-41
2022/04/21 03:08:46;;;;;;;17.02;13.30;;;5.30;99.90;;;;;;5103372;27;20048;-43
2022/04/21 03:11:12;;;;;;;16.73;13.23;;;5.30;99.90;;;;;;5103474;27;20158;-43
2022/04/21 03:13:38;;;;;;;17.63;13.02;;;5.30;99.90;;;;;;5092690;28;20051;-41
2022/04/21 03:16:04;;;;;;;17.95;15.10;;;5.30;99.90;;;;;;5103442;27;20059;-42
2022/04/21 03:18:29;;;;;;;16.33;13.73;;;5.30;99.90;;;;;;5103385;28;20619;-41
2022/04/21 03:26:24;;;;;;;18.65;13.32;;;5.30;99.90;;;;;;5114764;27;20058;-41
2022/04/21 03:28:49;;;;;;;18.17;13.75;;;5.30;99.90;;;;;;5095215;28;20060;-44
2022/04/21 03:31:15;;;;;;;18.88;14.48;;;5.20;99.90;;;;;;5104606;27;20071;-41
2022/04/21 03:33:41;;;;;;;19.50;13.93;;;5.20;99.90;;;;;;5124904;27;20064;-43
2022/04/21 03:36:07;;;;;;;16.63;14.15;;;5.10;99.90;;;;;;5126118;27;20051;-42
2022/04/21 03:38:32;;;;;;;19.65;14.25;;;5.20;99.90;;;;;;5124367;27;20058;-41
2022/04/21 03:40:58;;;;;;;19.20;14.48;;;5.20;99.90;;;;;;5123423;27;20051;-41
2022/04/21 03:43:24;;;;;;;19.70;14.30;;;5.20;99.90;;;;;;5118708;27;20055;-42
2022/04/21 03:45:50;;;;;;;18.55;14.52;;;5.20;99.90;;;;;;5122026;27;20047;-42
2022/04/21 03:48:16;;;;;;;18.63;14.90;;;5.20;99.90;;;;;;5123337;27;20215;-45
2022/04/21 03:50:42;;;;;;;20.25;14.35;;;5.20;99.90;;;;;;5122466;27;20122;-42
2022/04/21 03:53:07;;;;;;;21.92;15.85;;;5.30;99.90;;;;;;5115728;27;20035;-44
2022/04/21 03:55:33;;;;;;;21.13;16.08;;;5.30;99.90;;;;;;5115550;27;20051;-42
2022/04/21 03:57:59;;;;;;;18.75;14.90;;;5.30;99.90;;;;;;5115444;27;20058;-44
2022/04/21 04:00:24;;;;;;;19.17;14.57;;;5.30;99.90;;;;;;5122260;27;20039;-41
2022/04/21 04:02:50;;;;;;;21.50;15.40;;;5.40;99.90;;;;;;5122651;27;20046;-43
2022/04/21 04:05:16;;;;;;;17.83;14.90;;;5.40;99.90;;;;;;5117148;27;20066;-42
2022/04/21 04:13:13;;;;;;;19.13;14.68;;;5.50;99.90;;;;;;5101369;28;20194;-42
2022/04/21 04:15:39;;;;;;;21.25;16.98;;;5.50;99.90;;;;;;5117304;27;20039;-41
2022/04/21 04:18:05;;;;;;;20.45;16.42;;;5.50;99.90;;;;;;5109932;27;20490;-43
2022/04/21 04:20:31;;;;;;;22.05;16.58;;;5.60;99.90;;;;;;5123125;27;20491;-43
2022/04/21 04:22:57;;;;;;;22.38;17.20;;;5.60;99.90;;;;;;5122546;27;20078;-44
2022/04/21 04:25:23;;;;;;;18.55;14.90;;;5.60;99.90;;;;;;5119829;27;20118;-42
2022/04/21 04:27:48;;;;;;;18.65;15.52;;;5.60;99.90;;;;;;5104787;27;20138;-42
2022/04/21 04:30:15;;;;;;;24.15;15.60;;;5.60;99.90;;;;;;5102083;28;20043;-41
2022/04/21 04:32:40;;;;;;;18.42;14.27;;;5.60;99.90;;;;;;5101031;28;20105;-44
2022/04/21 04:35:06;;;;;;;20.98;15.65;;;5.70;99.90;;;;;;5103255;27;20052;-43
2022/04/21 04:37:32;;;;;;;18.23;14.90;;;5.70;99.90;;;;;;5104964;27;20414;-42
2022/04/21 04:39:59;;;;;;;20.88;16.23;;;5.70;99.90;;;;;;5101644;28;20901;-42
2022/04/21 04:42:25;;;;;;;20.40;15.15;;;5.70;99.90;;;;;;5115485;27;20119;-44
2022/04/21 04:47:40;;;;;;;17.90;14.88;;;5.80;99.90;;;;;;5114407;27;20089;-42
2022/04/21 04:50:07;;;;;;;18.95;15.10;;;5.80;99.90;;;;;;5098228;28;20100;-45
2022/04/21 04:52:33;;;;;;;20.38;14.80;;;5.90;99.90;;;;;;5107062;27;20810;-43
2022/04/21 04:54:58;;;;;;;18.70;15.48;;;5.90;99.90;;;;;;5121187;27;20050;-44
2022/04/21 04:57:24;;;;;;;20.65;15.05;;;5.90;99.90;;;;;;5111181;27;20074;-41
2022/04/21 04:59:59;;;;;;;19.98;14.85;;;6.00;99.90;;;;;;5122101;27;20039;-43
2022/04/21 05:02:25;;;;;;;20.55;14.55;;;6.10;99.90;;;;;;5122027;27;20039;-41
2022/04/21 05:04:50;;;;;;;19.55;16.25;;;6.10;99.90;;;;;;5120541;27;20103;-42
2022/04/21 05:07:17;;;;;;;15.10;13.52;;;6.20;99.90;;;;;;5120914;27;20049;-44
2022/04/21 05:09:42;;;;;;;17.58;14.30;;;6.30;99.90;;;;;;5132705;27;20038;-41
2022/04/21 05:12:09;;;;;;;16.17;14.48;;;6.40;99.90;;;;;;5100976;28;20492;-42
2022/04/21 05:14:34;;;;;;;19.77;14.07;;;6.50;99.90;;;;;;5111325;27;20078;-43
2022/04/21 05:17:00;;;;;;;16.27;13.82;;;6.60;99.90;;;;;;5108701;27;20121;-45
2022/04/21 05:19:26;;;;;;;16.05;13.27;;;7.30;99.90;;;;;;5117725;27;20492;-43
2022/04/21 05:21:52;;;;;;;17.00;14.13;;;8.50;99.90;;;;;;5100135;28;20083;-43
2022/04/21 05:24:19;;;;;;;14.27;12.30;;;9.80;99.90;;;;;;5099535;28;20051;-44
2022/04/21 05:26:46;;;;;;;15.45;12.25;;;11.00;99.90;;;;;;5099757;28;20126;-43
2022/04/21 05:31:58;;;;;;;13.70;12.30;;;12.90;99.90;;;;;;5102442;28;20132;-43
2022/04/21 05:34:25;;;;;;;13.48;11.82;;;13.90;99.90;;;;;;5099927;28;20066;-42
2022/04/21 05:36:51;;;;;;;14.10;12.00;;;14.60;99.90;;;;;;5091604;28;20043;-45
2022/04/21 05:39:18;;;;;;;12.80;11.50;;;15.50;99.90;;;;;;5103731;28;20074;-44
2022/04/21 05:41:44;;;;;;;13.15;11.75;;;16.10;99.90;;;;;;5100611;28;20062;-45
2022/04/21 05:44:11;;;;;;;13.50;11.15;;;17.00;99.90;;;;;;5099781;28;20135;-43
2022/04/21 05:46:37;;;;;;;11.98;10.63;;;17.50;99.90;;;;;;5090350;28;20087;-45
2022/04/21 05:49:03;;;;;;;12.27;10.93;;;18.20;99.40;;;;;;5100311;28;20052;-44
2022/04/21 05:51:29;;;;;;;13.75;10.75;;;18.80;98.30;;;;;;5103990;28;20052;-43
2022/04/21 05:53:58;;;;;;;13.35;11.55;;;18.90;95.40;;;;;;5093266;28;20052;-44
2022/04/21 05:56:24;;;;;;;10.75;9.65;;;18.70;94.20;;;;;;5112230;28;20516;-46
2022/04/21 05:58:51;;;;;;;13.23;10.73;;;18.90;93.80;;;;;;5107580;28;20051;-45
2022/04/21 06:01:17;;;;;;;10.68;9.38;;;19.00;93.00;;;;;;5110890;28;20059;-44
2022/04/21 06:03:43;;;;;;;10.68;9.73;;;19.30;92.30;;;;;;5103943;28;20170;-45
2022/04/21 06:06:10;;;;;;;10.55;8.93;;;19.50;91.90;;;;;;5101401;28;20823;-48
2022/04/21 06:08:36;;;;;;;11.85;10.10;;;19.90;91.30;;;;;;5122931;27;20051;-45
2022/04/21 06:11:05;;;;;;;10.90;9.73;;;20.40;90.50;;;;;;5125349;27;20372;-44
2022/04/21 06:13:31;;;;;;;10.60;9.55;;;20.60;89.10;;;;;;5099154;28;20048;-47
2022/04/21 06:15:58;;;;;;;11.02;8.90;;;20.70;87.40;;;;;;5100443;28;20409;-46
2022/04/21 06:18:25;;;;;;;10.88;8.40;;;20.50;85.90;;;;;;5120597;27;20051;-43
2022/04/21 06:20:52;;;;;;;13.40;9.85;;;20.50;85.70;;;;;;5119460;28;20576;-44
2022/04/21 06:23:17;;;;;;;12.00;9.02;;;20.90;85.70;;;;;;5109122;28;20127;-43
2022/04/21 06:25:44;;;;;;;10.88;8.55;;;21.20;84.10;;;;;;5120571;28;20410;-44
2022/04/21 06:28:11;;;;;;;9.82;8.73;;;21.10;82.00;;;;;;5100744;28;20444;-45
2022/04/21 06:30:37;;;;;;;9.70;8.40;;;21.10;81.90;;;;;;5073231;28;20066;-46
2022/04/21 06:33:03;;;;;;;9.35;8.25;;;21.10;81.40;;;;;;5108282;28;20116;-44
2022/04/21 06:35:29;;;;;;;9.45;8.32;;;21.00;80.60;;;;;;5119545;28;20046;-43
2022/04/21 06:37:56;;;;;;;9.63;8.20;;;20.90;81.70;;;;;;5121360;27;20135;-44
2022/04/21 06:40:25;;;;;;;8.85;7.95;;;20.60;80.60;;;;;;5123646;27;20108;-45
2022/04/21 06:42:51;;;;;;;9.00;8.10;;;20.50;80.10;;;;;;5123633;27;20055;-45
2022/04/21 06:48:04;;;;;;;8.57;7.60;;;20.50;80.00;;;;;;5123510;27;20112;-43
2022/04/21 06:50:38;;;;;;;8.30;7.60;;;20.60;80.20;;;;;;5120865;27;20063;-44
2022/04/21 06:53:06;;;;;;;8.20;7.18;;;20.50;78.60;;;;;;5123298;27;20482;-43
2022/04/21 06:55:32;;;;;;;12.93;6.90;;;20.40;78.30;;;;;;5104132;27;20055;-44
2022/04/21 06:57:58;;;;;;;7.95;6.90;;;20.20;78.10;;;;;;5114508;27;20039;-44
2022/04/21 07:00:26;;;;;;;9.80;6.57;;;20.10;79.00;;;;;;5101397;27;20532;-43
2022/04/21 07:02:52;;;;;;;7.45;6.65;;;19.60;78.80;;;;;;5094936;28;20052;-44
2022/04/21 07:05:18;;;;;;;8.60;6.80;;;18.70;80.00;;;;;;5117330;27;20148;-45
2022/04/21 07:07:44;;;;;;;7.95;6.90;;;18.00;80.40;;;;;;5123801;27;20495;-43
2022/04/21 07:10:11;;;;;;;9.45;7.35;;;17.50;82.60;;;;;;5131826;27;20504;-43
2022/04/21 07:12:37;;;;;;;7.45;6.75;;;17.20;84.30;;;;;;5092293;28;20047;-43
2022/04/21 07:15:08;;;;;;;8.80;6.80;;;16.80;84.60;;;;;;5111051;27;20054;-48
2022/04/21 07:17:36;;;;;;;7.53;6.78;;;16.60;84.40;;;;;;5126852;27;20054;-45
2022/04/21 07:20:04;;;;;;;9.88;7.03;;;16.30;84.70;;;;;;5104377;27;20055;-46
2022/04/21 07:22:30;;;;;;;8.00;5.80;;;15.80;86.10;;;;;;5115651;27;20093;-44
2022/04/21 07:24:58;;;;;;;8.60;6.78;;;15.50;85.70;;;;;;5103303;27;20105;-42
2022/04/21 07:27:24;;;;;;;8.45;6.53;;;15.30;87.40;;;;;;5123715;27;20046;-45
2022/04/21 07:29:50;;;;;;;7.20;5.68;;;15.20;88.50;;;;;;5122751;27;20445;-43
2022/04/21 07:32:17;;;;;;;7.68;6.13;;;15.10;87.70;;;;;;5122512;27;20126;-43
2022/04/21 07:34:43;;;;;;;6.68;5.95;;;15.00;87.90;;;;;;5114510;27;20051;-44
2022/04/21 07:37:10;;;;;;;8.25;6.15;;;15.00;88.30;;;;;;5103833;27;20058;-43
2022/04/21 07:39:37;;;;;;;8.35;6.10;;;14.90;88.70;;;;;;5103563;27;20527;-45
2022/04/21 07:42:05;;;;;;;6.88;5.25;;;14.90;89.20;;;;;;5102304;28;20067;-43
2022/04/21 07:44:31;;;;;;;6.63;5.25;;;14.80;90.30;;;;;;5099788;28;20445;-43
2022/04/21 07:46:57;;;;;;;6.20;5.57;;;14.70;89.70;;;;;;5095476;27;20056;-43
2022/04/21 07:54:52;;;;;;;5.88;4.97;;;14.80;90.50;;;;;;5101064;28;20116;-45
2022/04/21 07:57:18;;;;;;;6.97;5.00;;;14.90;90.20;;;;;;5104365;27;20066;-45
2022/04/21 07:59:44;;;;;;;5.35;4.63;;;15.00;90.20;;;;;;5101569;28;20568;-46
2022/04/21 08:02:11;;;;;;;7.18;4.97;;;15.00;90.00;;;;;;5101608;28;20048;-43
2022/04/21 08:04:40;;;;;;;7.28;4.05;;;15.00;90.30;;;;;;5091132;28;20047;-43
2022/04/21 08:07:06;;;;;;;5.60;4.00;;;15.00;88.70;;;;;;5115336;27;20527;-44
2022/04/21 08:09:32;;;;;;;6.95;4.30;;;14.80;88.50;;;;;;5127319;27;20050;-43
2022/04/21 08:11:57;;;;;;;6.63;3.30;;;14.70;89.00;;;;;;5121893;27;20055;-43
2022/04/21 08:14:24;;;;;;;5.28;4.28;;;14.70;88.20;;;;;;5122246;27;20058;-46
2022/04/21 08:16:53;;;;;;;6.25;3.78;;;14.60;88.40;;;;;;5111668;27;20039;-47
2022/04/21 08:19:22;;;;;;;5.00;4.18;;;14.60;88.00;;;;;;5119348;27;20059;-48
2022/04/21 08:21:48;;;;;;;6.35;3.83;;;14.60;89.80;;;;;;5122087;27;20051;-44
2022/04/21 08:32:37;;;;;;;4.03;3.08;;;14.70;88.60;;;;;;5104564;28;20457;-46
2022/04/21 08:35:06;;;;;;;8.73;3.17;;;14.70;87.30;;;;;;5101444;28;20094;-49
2022/04/21 08:37:35;;;;;;;4.20;3.47;;;14.50;87.10;;;;;;5102226;28;20048;-44
2022/04/21 08:40:05;;;;;;;4.90;3.33;;;14.50;86.40;;;;;;5107512;27;20052;-44
2022/04/21 08:42:39;;;;;;;5.85;3.13;;;14.40;86.50;;;;;;5122102;27;20058;-43
2022/04/21 08:45:07;;;;;;;5.85;2.97;;;14.50;87.90;;;;;;5120671;27;20043;-44
2022/04/21 08:47:33;;;;;;;3.70;3.10;;;14.50;87.10;;;;;;5120928;27;20436;-45
2022/04/21 08:50:14;;;;;;;6.45;3.63;;;14.70;87.30;;;;;;5114532;27;20055;-44
2022/04/21 08:52:41;;;;;;;4.30;2.95;;;14.70;87.10;;;;;;5121911;27;20043;-45
2022/04/21 08:55:11;;;;;;;4.97;3.30;;;14.70;89.00;;;;;;5120822;27;20058;-45
2022/04/21 08:57:37;;;;;;;4.45;3.60;;;14.90;87.90;;;;;;5121836;27;20096;-44
2022/04/21 09:00:08;;;;;;;4.38;3.28;;;15.00;87.30;;;;;;5121885;27;20042;-46
2022/04/21 09:02:39;;;;;;;7.43;3.47;;;15.00;86.40;;;;;;5120467;27;20585;-45
2022/04/21 09:05:06;;;;;;;5.07;3.13;;;15.10;88.90;;;;;;5119473;27;20054;-48
2022/04/21 09:07:42;;;;;;;5.32;3.25;;;15.30;90.70;;;;;;5119771;27;20050;-43
2022/04/21 09:10:12;;;;;;;3.80;3.08;;;15.40;88.40;;;;;;5115814;27;20051;-43
2022/04/21 09:12:43;;;;;;;4.10;3.70;;;15.30;88.20;;;;;;5120043;27;20074;-44
2022/04/21 09:15:14;;;;;;;4.97;3.47;;;15.40;87.70;;;;;;5119684;27;20528;-44
2022/04/21 09:17:45;;;;;;;6.00;3.30;;;15.40;88.70;;;;;;5120089;27;20420;-43
2022/04/21 09:20:13;;;;;;;6.20;3.33;;;15.40;88.00;;;;;;5120202;27;20051;-45
2022/04/21 09:22:42;;;;;;;4.72;3.33;;;15.60;88.70;;;;;;5107111;27;20090;-43
2022/04/21 09:25:09;;;;;;;4.80;3.40;;;15.80;90.00;;;;;;5120365;27;20039;-44
2022/04/21 09:27:48;;;;;;;5.45;4.10;;;15.90;88.60;;;;;;5119547;28;20489;-46
2022/04/21 09:30:14;;;;;;;4.07;3.30;;;16.00;88.60;;;;;;5111113;27;20692;-44
2022/04/21 09:32:42;;;;;;;6.20;4.10;;;16.00;88.00;;;;;;5091466;28;20059;-44
2022/04/21 09:35:10;;;;;;;5.97;3.70;;;15.90;89.30;;;;;;5097690;28;20540;-45
2022/04/21 09:37:45;;;;;;;6.93;3.88;;;16.00;89.90;;;;;;5099609;28;20112;-45
2022/04/21 09:40:11;;;;;;;5.00;3.50;;;16.00;89.80;;;;;;5100792;28;20117;-43
2022/04/21 09:42:37;;;;;;;8.40;3.67;;;16.00;88.60;;;;;;5090781;28;20048;-45
2022/04/21 09:47:49;;;;;;;5.18;3.95;;;16.00;90.00;;;;;;5100809;28;20051;-47
2022/04/21 09:50:15;;;;;;;7.82;3.88;;;16.10;89.80;;;;;;5101862;28;20051;-46
2022/04/21 09:53:03;;;;;;;6.32;4.03;;;16.10;90.00;;;;;;5102984;28;20402;-47
2022/04/21 09:55:31;;;;;;;5.82;4.15;;;16.00;88.30;;;;;;5111759;28;20043;-50
2022/04/21 09:58:05;;;;;;;5.38;4.10;;;16.00;90.00;;;;;;5113638;28;20169;-45
2022/04/21 10:00:33;;;;;;;10.25;4.30;;;16.00;89.90;;;;;;5114025;27;20044;-49
2022/04/21 10:03:00;;;;;;;6.03;3.80;;;16.10;91.00;;;;;;5107469;28;20477;-44
2022/04/21 10:05:26;;;;;;;9.48;4.50;;;16.20;91.10;;;;;;5102302;28;20047;-46
2022/04/21 10:07:53;;;;;;;7.93;4.22;;;16.30;90.50;;;;;;5091785;28;20128;-45
2022/04/21 10:10:19;;;;;;;5.32;4.10;;;16.30;89.80;;;;;;5121159;27;20055;-47
2022/04/21 10:12:46;;;;;;;5.95;4.53;;;16.30;90.30;;;;;;5100740;28;20059;-43
2022/04/21 10:15:11;;;;;;;5.53;3.85;;;16.20;89.80;;;;;;5099476;27;20047;-44
2022/04/21 10:17:37;;;;;;;6.45;4.20;;;16.20;90.50;;;;;;5124373;27;20395;-45
2022/04/21 10:20:05;;;;;;;4.95;3.75;;;16.20;90.60;;;;;;5117986;27;20051;-45
2022/04/21 10:22:34;;;;;;;5.45;4.10;;;16.20;89.20;;;;;;5122621;27;20096;-44
2022/04/21 10:25:01;;;;;;;5.63;3.95;;;16.00;88.40;;;;;;5123568;27;20482;-46
2022/04/21 10:27:39;;;;;;;5.90;3.50;;;16.00;90.00;;;;;;5125016;27;20039;-44
2022/04/21 10:30:22;;;;;;;4.75;4.05;;;16.00;89.80;;;;;;5118964;27;20058;-45
2022/04/21 10:32:55;;;;;;;6.65;4.28;;;16.10;90.10;;;;;;5119339;27;20528;-47
2022/04/21 10:35:24;;;;;;;5.30;3.90;;;16.10;90.40;;;;;;5100013;28;20051;-44
2022/04/21 10:38:14;;;;;;;7.00;4.13;;;16.10;90.30;;;;;;5114802;27;20447;-44
2022/04/21 10:41:03;;;;;;;7.03;4.55;;;16.40;90.50;;;;;;5123698;27;20431;-45
2022/04/21 10:43:50;;;;;;;5.70;4.78;;;16.50;90.50;;;;;;5109899;27;20047;-47
2022/04/21 10:46:31;;;;;;;5.85;4.10;;;16.50;88.40;;;;;;5081252;27;20048;-45
2022/04/21 10:48:59;;;;;;;4.57;4.05;;;16.30;90.10;;;;;;5078340;28;20048;-45
2022/04/21 10:57:15;;;;;;;9.85;4.13;;;16.20;89.80;;;;;;5082560;28;20105;-45
2022/04/21 11:00:10;;;;;;;3.90;3.60;;;16.20;88.20;;;;;;5067365;28;20589;-45
2022/04/21 11:02:44;;;;;;;6.07;3.85;;;16.20;89.70;;;;;;5073857;28;20618;-46
2022/04/21 11:05:22;;;;;;;5.03;3.45;;;16.30;90.60;;;;;;5082412;28;20494;-45
2022/04/21 11:07:51;;;;;;;5.88;3.70;;;16.30;89.60;;;;;;5084144;28;20105;-46
2022/04/21 11:10:39;;;;;;;6.25;3.63;;;16.40;89.10;;;;;;5082347;28;20101;-47
2022/04/21 11:13:10;;;;;;;3.80;3.50;;;16.50;90.20;;;;;;5069381;28;20094;-44
2022/04/21 11:15:45;;;;;;;5.25;3.67;;;16.60;88.30;;;;;;5076408;28;20066;-46
2022/04/21 11:18:13;;;;;;;5.63;3.85;;;16.70;88.60;;;;;;5077913;28;20080;-49
2022/04/21 11:20:41;;;;;;;3.25;2.95;;;16.80;87.00;;;;;;5066747;28;20134;-44
2022/04/21 11:23:08;;;;;;;4.63;3.50;;;16.80;86.30;;;;;;5080805;28;20052;-50
2022/04/21 11:25:35;;;;;;;4.05;3.60;;;16.70;87.80;;;;;;5082192;28;20040;-46
2022/04/21 11:28:02;;;;;;;5.50;3.15;;;16.60;88.00;;;;;;5082969;28;20131;-46
2022/04/21 11:30:32;;;;;;;4.55;3.10;;;16.60;86.70;;;;;;5070890;28;20039;-47
2022/04/21 11:32:59;;;;;;;4.18;3.75;;;16.70;85.30;;;;;;5061877;28;20084;-46
2022/04/21 11:35:25;;;;;;;12.38;4.07;;;16.60;85.00;;;;;;5061786;28;20090;-43
2022/04/21 11:37:58;;;;;;;3.25;2.95;;;16.60;85.50;;;;;;5063628;28;20499;-44
2022/04/21 11:40:39;;;;;;;5.05;3.80;;;16.50;85.00;;;;;;5060587;28;20071;-46
2022/04/21 11:43:11;;;;;;;4.35;3.63;;;16.50;85.20;;;;;;5059674;28;20462;-44
2022/04/21 11:45:40;;;;;;;4.65;2.63;;;16.50;86.90;;;;;;5061716;28;20054;-45
2022/04/21 11:48:14;;;;;;;3.67;2.95;;;16.40;85.20;;;;;;5063831;28;20082;-43
2022/04/21 11:50:47;;;;;;;4.78;3.40;;;16.30;85.10;;;;;;5046206;28;20102;-43
2022/04/21 11:53:15;;;;;;;3.65;3.30;;;16.30;85.60;;;;;;5098750;28;20070;-44
2022/04/21 11:55:41;;;;;;;4.72;3.15;;;16.50;86.90;;;;;;5100584;28;20055;-45
2022/04/21 11:58:07;;;;;;;4.82;2.40;;;16.50;87.90;;;;;;5102348;28;20050;-45
2022/04/21 12:08:47;;;;;;;3.95;3.47;;;16.60;86.00;;;;;;5088037;27;20043;-45
2022/04/21 12:11:17;;;;;;;4.97;3.35;;;16.60;87.60;;;;;;5086955;28;20063;-44
2022/04/21 12:13:47;;;;;;;8.27;4.00;;;16.60;86.70;;;;;;5091219;28;20051;-44
2022/04/21 12:16:34;;;;;;;4.97;3.92;;;16.70;87.30;;;;;;5100839;28;20592;-45
2022/04/21 12:19:26;;;;;;;7.40;3.88;;;16.90;87.30;;;;;;5101502;28;20052;-47
2022/04/21 12:21:59;;;;;;;5.90;3.90;;;17.10;89.00;;;;;;5091866;28;20052;-43
2022/04/21 12:24:39;;;;;;;5.80;3.30;;;17.10;86.30;;;;;;5091866;28;20047;-46
2022/04/21 12:27:25;;;;;;;7.50;3.42;;;17.00;86.50;;;;;;5091714;28;20044;-44
2022/04/21 12:29:57;;;;;;;6.18;4.00;;;16.90;88.00;;;;;;5082247;28;20044;-47
2022/04/21 12:32:39;;;;;;;4.93;4.05;;;17.00;89.00;;;;;;5082171;28;20127;-44
2022/04/21 12:35:08;;;;;;;5.18;4.07;;;17.10;89.70;;;;;;5092393;28;20047;-44
2022/04/21 12:37:39;;;;;;;4.22;3.72;;;17.10;88.20;;;;;;5101121;28;20044;-47
2022/04/21 12:40:07;;;;;;;4.55;3.40;;;17.10;88.20;;;;;;5086992;28;20040;-44
2022/04/21 12:42:34;;;;;;;4.07;3.13;;;17.10;88.70;;;;;;5084046;28;20138;-45
2022/04/21 12:45:01;;;;;;;4.93;3.72;;;17.10;85.70;;;;;;5085074;28;20043;-45
2022/04/21 12:47:27;;;;;;;4.97;3.20;;;17.10;84.40;;;;;;5100173;28;20514;-46
2022/04/21 12:50:08;;;;;;;5.75;3.58;;;17.10;84.80;;;;;;5100576;28;20052;-49
2022/04/21 12:52:55;;;;;;;6.88;3.75;;;17.10;84.50;;;;;;5100408;28;20530;-46
2022/04/21 12:55:21;;;;;;;4.88;3.72;;;17.20;85.00;;;;;;5088060;28;20481;-47
2022/04/21 12:58:09;;;;;;;6.45;3.88;;;17.20;84.40;;;;;;5100457;28;20158;-46
2022/04/21 13:00:38;;;;;;;3.58;2.50;;;17.20;85.40;;;;;;5101069;28;20062;-45
2022/04/21 13:03:05;;;;;;;8.80;3.95;;;17.00;82.30;;;;;;5099761;28;20051;-45
2022/04/21 13:05:31;;;;;;;4.82;3.85;;;16.90;83.60;;;;;;5099709;28;20588;-44
2022/04/21 13:07:58;;;;;;;5.75;3.38;;;16.80;83.80;;;;;;5081465;28;20394;-45
2022/04/21 13:10:23;;;;;;;3.85;3.05;;;16.70;83.90;;;;;;5102193;27;20050;-45
2022/04/21 13:12:49;;;;;;;3.90;2.88;;;16.60;83.40;;;;;;5062683;28;20047;-43
2022/04/21 13:15:15;;;;;;;5.55;3.30;;;16.70;84.50;;;;;;5091802;28;20083;-44
2022/04/21 13:17:41;;;;;;;6.22;3.40;;;16.70;84.20;;;;;;5064634;28;20486;-45
2022/04/21 13:20:09;;;;;;;4.72;3.63;;;16.60;83.80;;;;;;5062071;28;20121;-45
2022/04/21 13:22:34;;;;;;;4.97;3.50;;;16.60;84.60;;;;;;5079221;28;20495;-45
2022/04/21 13:25:01;;;;;;;6.97;4.05;;;16.80;86.80;;;;;;5078596;28;20055;-46
2022/04/21 13:27:29;;;;;;;4.85;3.30;;;16.90;86.70;;;;;;5065241;28;20051;-44
2022/04/21 13:29:54;;;;;;;5.10;3.90;;;17.00;85.30;;;;;;5100248;28;20065;-44
2022/04/21 13:35:06;;;;;;;6.40;4.07;;;16.80;83.50;;;;;;5081126;28;20417;-46
2022/04/21 13:37:32;;;;;;;6.13;4.13;;;16.80;84.80;;;;;;5081290;28;20059;-45
2022/04/21 13:39:58;;;;;;;4.25;3.25;;;16.80;84.30;;;;;;5081116;28;20043;-44
2022/04/21 13:42:23;;;;;;;7.00;3.80;;;16.70;86.00;;;;;;5081224;28;20048;-49
2022/04/21 13:44:51;;;;;;;4.43;3.88;;;16.60;85.80;;;;;;5062306;28;20075;-46
2022/04/21 13:47:17;;;;;;;5.78;4.10;;;16.60;85.60;;;;;;5079988;28;20392;-45
2022/04/21 13:49:43;;;;;;;5.45;4.65;;;16.60;85.50;;;;;;5095574;28;20056;-45
2022/04/21 13:52:11;;;;;;;6.35;4.40;;;16.60;86.50;;;;;;5104475;28;20055;-44
2022/04/21 13:54:38;;;;;;;6.30;3.70;;;16.70;87.70;;;;;;5104456;28;20051;-45